createdAt,value
2024-04-10T00:01:04.354Z,9
2024-04-10T00:03:03.073Z,10
2024-04-10T00:05:03.182Z,10
2024-04-10T00:07:03.063Z,9
2024-04-10T00:09:02.830Z,13
2024-04-10T00:11:03.388Z,6
2024-04-10T00:13:02.952Z,8
2024-04-10T00:15:02.920Z,9
2024-04-10T00:17:02.968Z,8
2024-04-10T00:19:02.971Z,10
2024-04-10T00:21:03.014Z,10
2024-04-10T00:23:03.370Z,10
2024-04-10T00:25:03.040Z,11
2024-04-10T00:27:02.987Z,9
2024-04-10T00:29:03.463Z,11
2024-04-10T00:31:04.391Z,8
2024-04-10T00:33:03.245Z,10
2024-04-10T00:35:03.087Z,11
2024-04-10T00:37:02.923Z,9
2024-04-10T00:39:02.969Z,7
2024-04-10T00:41:03.700Z,7
2024-04-10T00:43:06.372Z,8
2024-04-10T00:45:02.965Z,9
2024-04-10T00:47:03.043Z,6
2024-04-10T00:49:03.134Z,12
2024-04-10T00:51:03.853Z,10
2024-04-10T00:53:03.029Z,9
2024-04-10T00:55:03.327Z,9
2024-04-10T00:57:02.973Z,11
2024-04-10T00:59:03.235Z,10
2024-04-10T01:01:03.299Z,10
2024-04-10T01:03:02.976Z,9
2024-04-10T01:05:03.363Z,9
2024-04-10T01:07:06.811Z,9
2024-04-10T01:09:02.857Z,10
2024-04-10T01:11:04.507Z,10
2024-04-10T01:13:02.878Z,9
2024-04-10T01:15:02.963Z,10
2024-04-10T01:17:03.607Z,9
2024-04-10T01:19:02.951Z,11
2024-04-10T01:21:03.303Z,10
2024-04-10T01:23:04.487Z,10
2024-04-10T01:25:02.972Z,10
2024-04-10T01:27:02.844Z,10
2024-04-10T01:29:02.806Z,7
2024-04-10T01:31:02.973Z,10
2024-04-10T01:33:03.152Z,10
2024-04-10T01:35:02.963Z,11
2024-04-10T01:37:02.885Z,9
2024-04-10T01:39:03.056Z,12
2024-04-10T01:41:02.943Z,11
2024-04-10T01:43:02.940Z,9
2024-04-10T01:45:03.823Z,8
2024-04-10T01:47:03.107Z,10
2024-04-10T01:49:02.922Z,9
2024-04-10T01:51:02.975Z,9
2024-04-10T01:53:02.979Z,11
2024-04-10T01:55:03.251Z,8
2024-04-10T01:57:02.877Z,9
2024-04-10T01:59:03.117Z,11
2024-04-10T02:01:03.036Z,10
2024-04-10T02:03:02.913Z,11
2024-04-10T02:05:03.006Z,9
2024-04-10T02:07:03.568Z,9
2024-04-10T02:09:05.984Z,7
2024-04-10T02:11:02.980Z,12
2024-04-10T02:13:02.950Z,12
2024-04-10T02:15:02.875Z,11
2024-04-10T02:17:03.744Z,11
2024-04-10T02:19:02.867Z,11
2024-04-10T02:21:05.140Z,11
2024-04-10T02:23:03.028Z,10
2024-04-10T02:25:02.871Z,9
2024-04-10T02:27:25.430Z,10
2024-04-10T02:28:37.507Z,11
2024-04-10T02:30:37.292Z,10
2024-04-10T02:32:37.522Z,12
2024-04-10T02:34:37.226Z,8
2024-04-10T02:36:37.367Z,9
2024-04-10T02:38:37.649Z,10
2024-04-10T02:40:37.289Z,11
2024-04-10T02:42:37.271Z,11
2024-04-10T02:44:37.462Z,10
2024-04-10T02:46:37.534Z,11
2024-04-10T02:48:37.358Z,10
2024-04-10T02:50:37.309Z,7
2024-04-10T02:52:37.312Z,9
2024-04-10T02:54:37.663Z,12
2024-04-10T02:56:37.349Z,8
2024-04-10T02:58:37.218Z,12
2024-04-10T03:00:43.613Z,10
2024-04-10T03:02:37.452Z,10
2024-04-10T03:04:37.388Z,11
2024-04-10T03:06:37.907Z,11
2024-04-10T03:08:37.727Z,10
2024-04-10T03:10:37.561Z,9
2024-04-10T03:12:37.300Z,12
2024-04-10T03:14:37.363Z,8
2024-04-10T03:16:37.317Z,11
2024-04-10T03:18:37.462Z,10
2024-04-10T03:20:37.332Z,9
2024-04-10T03:22:37.500Z,12
2024-04-10T03:24:37.299Z,10
2024-04-10T03:26:37.501Z,7
2024-04-10T03:28:37.220Z,10
2024-04-10T03:30:37.238Z,9
2024-04-10T03:32:38.241Z,10
2024-04-10T03:34:37.198Z,11
2024-04-10T03:36:37.228Z,10
2024-04-10T03:38:37.397Z,12
2024-04-10T03:40:37.207Z,12
2024-04-10T03:42:37.338Z,10
2024-04-10T03:44:37.358Z,10
2024-04-10T03:46:37.298Z,11
2024-04-10T03:48:37.431Z,12
2024-04-10T03:50:37.333Z,10
2024-04-10T03:52:37.327Z,11
2024-04-10T03:54:37.236Z,12
2024-04-10T03:56:37.449Z,10
2024-04-10T03:58:37.934Z,9
2024-04-10T04:00:37.631Z,10
2024-04-10T04:02:37.404Z,12
2024-04-10T04:04:37.285Z,8
2024-04-10T04:06:37.253Z,10
2024-04-10T04:08:37.624Z,12
2024-04-10T04:10:37.306Z,10
2024-04-10T04:12:37.307Z,10
2024-04-10T04:14:37.390Z,10
2024-04-10T04:16:37.321Z,9
2024-04-10T04:18:37.357Z,14
2024-04-10T04:20:37.557Z,11
2024-04-10T04:22:37.264Z,10
2024-04-10T04:24:37.272Z,11
2024-04-10T04:26:37.274Z,12
2024-04-10T04:28:37.592Z,9
2024-04-10T04:30:37.685Z,10
2024-04-10T04:32:37.615Z,13
2024-04-10T04:34:37.252Z,12
2024-04-10T04:36:37.288Z,9
2024-04-10T04:38:37.642Z,14
2024-04-10T04:40:37.469Z,11
2024-04-10T04:42:37.377Z,12
2024-04-10T04:44:37.359Z,5
2024-04-10T04:46:37.305Z,12
2024-04-10T04:48:37.789Z,14
2024-04-10T04:50:37.889Z,13
2024-04-10T04:52:37.383Z,12
2024-04-10T04:54:37.386Z,14
2024-04-10T04:56:37.271Z,13
2024-04-10T04:58:37.281Z,13
2024-04-10T05:00:37.547Z,12
2024-04-10T05:02:37.344Z,12
2024-04-10T05:04:37.312Z,9
2024-04-10T05:06:37.310Z,13
2024-04-10T05:08:37.367Z,14
2024-04-10T05:10:38.841Z,9
2024-04-10T05:12:37.239Z,13
2024-04-10T05:14:37.428Z,12
2024-04-10T05:16:37.632Z,12
2024-04-10T05:18:37.471Z,11
2024-04-10T05:20:37.349Z,12
2024-04-10T05:22:37.415Z,13
2024-04-10T05:24:37.473Z,11
2024-04-10T05:26:37.628Z,12
2024-04-10T05:28:37.448Z,11
2024-04-10T05:30:37.200Z,10
2024-04-10T05:32:40.155Z,10
2024-04-10T05:34:37.392Z,10
2024-04-10T05:36:37.193Z,10
2024-04-10T05:38:37.326Z,10
2024-04-10T05:40:37.418Z,11
2024-04-10T05:42:38.117Z,10
2024-04-10T05:44:37.244Z,10
2024-04-10T05:46:37.163Z,8
2024-04-10T05:48:37.845Z,8
2024-04-10T05:50:37.731Z,10
2024-04-10T05:52:38.066Z,8
2024-04-10T05:54:37.150Z,8
2024-04-10T05:56:37.690Z,9
2024-04-10T05:58:37.242Z,6
2024-04-10T06:00:37.176Z,5
2024-04-10T06:02:37.410Z,6
2024-04-10T06:04:37.601Z,7
2024-04-10T06:06:37.459Z,6
2024-04-10T06:08:37.268Z,6
2024-04-10T06:10:37.409Z,5
2024-04-10T06:12:37.335Z,3
2024-04-10T06:14:37.341Z,4
2024-04-10T06:16:37.323Z,5
2024-04-10T06:18:37.492Z,4
2024-04-10T06:20:37.232Z,4
2024-04-10T06:22:37.136Z,4
2024-04-10T06:24:37.558Z,4
2024-04-10T06:26:37.446Z,4
2024-04-10T06:28:37.292Z,3
2024-04-10T06:30:37.139Z,2
2024-04-10T06:32:37.472Z,2
2024-04-10T06:34:37.233Z,4
2024-04-10T06:36:37.230Z,2
2024-04-10T06:38:37.256Z,3
2024-04-10T06:40:37.215Z,2
2024-04-10T06:42:37.515Z,2
2024-04-10T06:44:37.427Z,3
2024-04-10T06:46:37.167Z,1
2024-04-10T06:48:37.702Z,2
2024-04-10T06:50:37.249Z,2
2024-04-10T06:52:37.241Z,2
2024-04-10T06:54:37.109Z,2
2024-04-10T06:56:37.851Z,2
2024-04-10T06:58:37.143Z,2
2024-04-10T07:00:37.702Z,2
2024-04-10T07:02:37.275Z,3
2024-04-10T07:04:37.750Z,2
2024-04-10T07:06:37.130Z,3
2024-04-10T07:08:43.392Z,2
2024-04-10T07:10:37.123Z,2
2024-04-10T07:12:37.204Z,3
2024-04-10T07:14:37.142Z,1
2024-04-10T07:16:37.213Z,2
2024-04-10T07:18:40.550Z,1
2024-04-10T07:20:37.398Z,2
2024-04-10T07:22:37.150Z,2
2024-04-10T07:24:37.101Z,0
2024-04-10T07:26:37.261Z,2
2024-04-10T07:28:37.409Z,2
2024-04-10T07:30:37.099Z,2
2024-04-10T07:32:37.365Z,1
2024-04-10T07:34:37.331Z,1
2024-04-10T07:36:40.791Z,2
2024-04-10T07:38:37.431Z,1
2024-04-10T07:40:37.176Z,1
2024-04-10T07:42:39.963Z,1
2024-04-10T07:44:38.546Z,2
2024-04-10T07:46:37.289Z,1
2024-04-10T07:48:38.381Z,1
2024-04-10T07:50:37.301Z,1
2024-04-10T07:52:37.248Z,2
2024-04-10T07:54:37.131Z,1
2024-04-10T07:56:37.523Z,1
2024-04-10T07:58:37.483Z,1
2024-04-10T08:00:37.250Z,2
2024-04-10T08:02:37.471Z,1
2024-04-10T08:04:37.507Z,2
2024-04-10T08:06:37.273Z,0
2024-04-10T08:08:37.163Z,1
2024-04-10T08:10:37.218Z,2
2024-04-10T08:12:37.580Z,0
2024-04-10T08:14:37.336Z,0
2024-04-10T08:16:37.157Z,1
2024-04-10T08:18:38.848Z,1
2024-04-10T08:20:37.239Z,1
2024-04-10T08:22:37.390Z,1
2024-04-10T08:24:37.093Z,1
2024-04-10T08:26:37.336Z,1
2024-04-10T08:28:37.335Z,1
2024-04-10T08:30:37.204Z,0
2024-04-10T08:32:37.324Z,0
2024-04-10T08:34:37.241Z,2
2024-04-10T08:36:37.282Z,1
2024-04-10T08:38:37.137Z,1
2024-04-10T08:40:37.422Z,2
2024-04-10T08:42:39.586Z,1
2024-04-10T08:44:37.257Z,1
2024-04-10T08:46:37.452Z,1
2024-04-10T08:48:38.669Z,1
2024-04-10T08:50:38.126Z,1
2024-04-10T08:52:38.377Z,1
2024-04-10T08:54:37.206Z,1
2024-04-10T08:56:37.175Z,1
2024-04-10T08:58:37.177Z,0
2024-04-10T09:00:39.833Z,1
2024-04-10T09:02:37.307Z,0
2024-04-10T09:04:43.205Z,2
2024-04-10T09:06:37.387Z,1
2024-04-10T09:08:38.106Z,1
2024-04-10T09:10:37.089Z,0
2024-04-10T09:12:37.230Z,0
2024-04-10T09:14:37.202Z,2
2024-04-10T09:16:37.296Z,1
2024-04-10T09:18:37.117Z,1
2024-04-10T09:20:37.061Z,2
2024-04-10T09:22:36.841Z,1
2024-04-10T09:24:37.171Z,1
2024-04-10T09:26:37.337Z,1
2024-04-10T09:28:37.385Z,1
2024-04-10T09:30:37.622Z,1
2024-04-10T09:32:37.620Z,1
2024-04-10T09:34:37.415Z,1
2024-04-10T09:36:37.665Z,1
2024-04-10T09:38:37.821Z,1
2024-04-10T09:40:40.074Z,0
2024-04-10T09:42:40.695Z,2
2024-04-10T09:44:37.762Z,1
2024-04-10T09:46:39.047Z,1
2024-04-10T09:48:39.135Z,1
2024-04-10T09:50:39.313Z,1
2024-04-10T09:52:38.019Z,1
2024-04-10T09:54:40.151Z,0
2024-04-10T09:56:37.530Z,1
2024-04-10T09:58:38.553Z,2
2024-04-10T10:00:37.498Z,1
2024-04-10T10:02:37.352Z,1
2024-04-10T10:04:41.490Z,1
2024-04-10T10:06:37.117Z,1
2024-04-10T10:08:47.358Z,1
2024-04-10T10:10:47.395Z,1
2024-04-10T10:12:37.433Z,1
2024-04-10T10:14:37.170Z,2
2024-04-10T10:16:37.172Z,1
2024-04-10T10:18:37.602Z,2
2024-04-10T10:20:37.155Z,1
2024-04-10T10:22:37.421Z,1
2024-04-10T10:24:37.161Z,1
2024-04-10T10:26:37.131Z,1
2024-04-10T10:28:37.034Z,1
2024-04-10T10:30:37.835Z,1
2024-04-10T10:32:37.235Z,1
2024-04-10T10:34:37.360Z,1
2024-04-10T10:36:37.261Z,1
2024-04-10T10:38:37.144Z,0
2024-04-10T10:40:37.299Z,1
2024-04-10T10:42:37.185Z,1
2024-04-10T10:44:37.145Z,2
2024-04-10T10:46:37.236Z,0
2024-04-10T10:48:37.523Z,0
2024-04-10T10:50:37.133Z,1
2024-04-10T10:52:37.050Z,2
2024-04-10T10:54:37.420Z,1
2024-04-10T10:56:37.272Z,1
2024-04-10T10:58:37.036Z,1
2024-04-10T11:00:37.239Z,1
2024-04-10T11:02:37.780Z,1
2024-04-10T11:04:37.340Z,1
2024-04-10T11:06:37.935Z,1
2024-04-10T11:08:37.339Z,1
2024-04-10T11:10:37.194Z,1
2024-04-10T11:12:37.255Z,1
2024-04-10T11:14:37.048Z,1
2024-04-10T11:16:38.502Z,0
2024-04-10T11:18:37.208Z,1
2024-04-10T11:20:37.150Z,0
2024-04-10T11:22:37.074Z,1
2024-04-10T11:24:37.088Z,0
2024-04-10T11:26:37.434Z,1
2024-04-10T11:28:37.553Z,1
2024-04-10T11:30:37.375Z,1
2024-04-10T11:32:37.422Z,1
2024-04-10T11:34:37.592Z,0
2024-04-10T11:36:37.014Z,1
2024-04-10T11:38:37.035Z,0
2024-04-10T11:40:37.349Z,1
2024-04-10T11:42:37.050Z,0
2024-04-10T11:44:37.337Z,1
2024-04-10T11:46:37.042Z,0
2024-04-10T11:48:38.265Z,1
2024-04-10T11:50:37.082Z,0
2024-04-10T11:52:39.520Z,1
2024-04-10T11:54:37.140Z,0
2024-04-10T11:56:37.097Z,1
2024-04-10T11:58:37.017Z,2
2024-04-10T12:00:37.028Z,1
2024-04-10T12:02:37.237Z,0
2024-04-10T12:04:37.367Z,1
2024-04-10T12:06:37.133Z,1
2024-04-10T12:08:37.512Z,1
2024-04-10T12:10:37.512Z,0
2024-04-10T12:12:37.514Z,2
2024-04-10T12:14:37.282Z,0
2024-04-10T12:16:37.067Z,0
2024-04-10T12:18:37.352Z,1
2024-04-10T12:20:37.172Z,1
2024-04-10T12:22:36.985Z,1
2024-04-10T12:24:36.998Z,0
2024-04-10T12:26:37.126Z,1
2024-04-10T12:28:36.980Z,0
2024-04-10T12:30:37.035Z,0
2024-04-10T12:32:37.229Z,2
2024-04-10T12:34:37.215Z,1
2024-04-10T12:36:37.344Z,0
2024-04-10T12:38:37.049Z,1
2024-04-10T12:40:36.986Z,1
2024-04-10T12:42:37.544Z,0
2024-04-10T12:44:37.005Z,0
2024-04-10T12:46:37.329Z,0
2024-04-10T12:48:37.478Z,0
2024-04-10T12:50:36.987Z,0
2024-04-10T12:52:37.379Z,0
2024-04-10T12:54:36.976Z,0
2024-04-10T12:56:37.461Z,0
2024-04-10T12:58:36.944Z,0
2024-04-10T13:00:38.580Z,0
2024-04-10T13:02:37.115Z,1
2024-04-10T13:04:36.980Z,2
2024-04-10T13:06:38.084Z,0
2024-04-10T13:08:37.277Z,0
2024-04-10T13:10:36.969Z,0
2024-04-10T13:12:37.061Z,1
2024-04-10T13:14:36.946Z,0
2024-04-10T13:16:36.959Z,1
2024-04-10T13:18:37.212Z,0
2024-04-10T13:20:37.088Z,0
2024-04-10T13:22:36.972Z,0
2024-04-10T13:24:37.069Z,0
2024-04-10T13:26:36.998Z,0
2024-04-10T13:28:37.781Z,0
2024-04-10T13:30:36.940Z,1
2024-04-10T13:32:37.181Z,0
2024-04-10T13:34:37.144Z,1
2024-04-10T13:36:37.046Z,0
2024-04-10T13:38:36.989Z,0
2024-04-10T13:40:36.983Z,1
2024-04-10T13:42:37.227Z,1
2024-04-10T13:44:36.962Z,0
2024-04-10T13:46:37.125Z,1
2024-04-10T13:48:37.424Z,0
2024-04-10T13:50:40.330Z,0
2024-04-10T13:52:36.953Z,0
2024-04-10T13:54:36.915Z,0
2024-04-10T13:56:37.211Z,0
2024-04-10T13:58:37.292Z,0
2024-04-10T14:00:37.115Z,0
2024-04-10T14:02:37.060Z,1
2024-04-10T14:04:37.103Z,2
2024-04-10T14:06:36.976Z,1
2024-04-10T14:08:37.305Z,0
2024-04-10T14:10:38.708Z,1
2024-04-10T14:12:37.351Z,1
2024-04-10T14:14:39.074Z,1
2024-04-10T14:16:37.090Z,0
2024-04-10T14:18:37.583Z,0
2024-04-10T14:20:36.983Z,0
2024-04-10T14:22:37.126Z,1
2024-04-10T14:24:36.950Z,0
2024-04-10T14:26:36.999Z,1
2024-04-10T14:28:36.947Z,1
2024-04-10T14:30:36.870Z,1
2024-04-10T14:32:37.173Z,1
2024-04-10T14:34:37.019Z,0
2024-04-10T14:36:37.340Z,1
2024-04-10T14:38:37.902Z,0
2024-04-10T14:40:37.468Z,0
2024-04-10T14:42:36.925Z,0
2024-04-10T14:44:36.965Z,1
2024-04-10T14:46:36.965Z,1
2024-04-10T14:48:37.044Z,1
2024-04-10T14:50:36.923Z,1
2024-04-10T14:52:37.012Z,0
2024-04-10T14:54:37.014Z,0
2024-04-10T14:56:36.954Z,1
2024-04-10T14:58:37.220Z,1
2024-04-10T15:00:37.065Z,0
2024-04-10T15:02:37.248Z,0
2024-04-10T15:04:36.947Z,0
2024-04-10T15:06:36.930Z,1
2024-04-10T15:08:36.964Z,1
2024-04-10T15:10:40.166Z,1
2024-04-10T15:12:36.999Z,2
2024-04-10T15:14:36.993Z,0
2024-04-10T15:16:36.957Z,1
2024-04-10T15:18:38.582Z,0
2024-04-10T15:20:37.811Z,0
2024-04-10T15:22:36.895Z,1
2024-04-10T15:24:38.232Z,0
2024-04-10T15:26:36.930Z,0
2024-04-10T15:28:36.964Z,1
2024-04-10T15:30:36.985Z,0
2024-04-10T15:32:37.012Z,1
2024-04-10T15:34:37.092Z,0
2024-04-10T15:36:36.998Z,0
2024-04-10T15:38:38.365Z,0
2024-04-10T15:40:36.832Z,0
2024-04-10T15:42:36.887Z,0
2024-04-10T15:44:36.978Z,0
2024-04-10T15:46:36.940Z,0
2024-04-10T15:48:37.053Z,0
2024-04-10T15:50:37.017Z,0
2024-04-10T15:52:49.782Z,1
2024-04-10T15:54:37.300Z,0
2024-04-10T15:56:36.945Z,0
2024-04-10T15:58:37.498Z,0
2024-04-10T16:00:37.106Z,0
2024-04-10T16:02:37.226Z,0
2024-04-10T16:04:36.922Z,0
2024-04-10T16:06:36.886Z,0
2024-04-10T16:08:36.947Z,0
2024-04-10T16:10:40.256Z,1
2024-04-10T16:12:36.950Z,0
2024-04-10T16:14:37.018Z,0
2024-04-10T16:16:36.923Z,1
2024-04-10T16:18:37.893Z,0
2024-04-10T16:20:37.201Z,0
2024-04-10T16:22:36.980Z,0
2024-04-10T16:24:37.143Z,0
2024-04-10T16:26:37.060Z,0
2024-04-10T16:28:37.457Z,0
2024-04-10T16:30:40.302Z,0
2024-04-10T16:32:37.465Z,0
2024-04-10T16:34:37.484Z,0
2024-04-10T16:36:36.805Z,1
2024-04-10T16:38:37.213Z,1
2024-04-10T16:40:36.909Z,0
2024-04-10T16:42:36.889Z,0
2024-04-10T16:44:36.972Z,1
2024-04-10T16:46:37.053Z,1
2024-04-10T16:48:37.159Z,0
2024-04-10T16:50:36.895Z,0
2024-04-10T16:52:36.847Z,0
2024-04-10T16:54:36.811Z,1
2024-04-10T16:56:37.040Z,0
2024-04-10T16:58:36.684Z,1
2024-04-10T17:00:36.980Z,0
2024-04-10T17:02:37.448Z,1
2024-04-10T17:04:36.982Z,1
2024-04-10T17:06:36.976Z,0
2024-04-10T17:08:37.061Z,0
2024-04-10T17:10:39.136Z,0
2024-04-10T17:12:37.005Z,0
2024-04-10T17:14:36.995Z,0
2024-04-10T17:16:37.113Z,1
2024-04-10T17:18:38.921Z,0
2024-04-10T17:20:37.201Z,0
2024-04-10T17:22:36.934Z,0
2024-04-10T17:24:36.941Z,1
2024-04-10T17:26:36.979Z,1
2024-04-10T17:28:36.911Z,1
2024-04-10T17:30:36.869Z,1
2024-04-10T17:32:37.010Z,0
2024-04-10T17:34:37.157Z,0
2024-04-10T17:36:36.831Z,0
2024-04-10T17:38:36.879Z,0
2024-04-10T17:40:36.879Z,1
2024-04-10T17:42:36.940Z,0
2024-04-10T17:44:36.894Z,1
2024-04-10T17:46:36.864Z,0
2024-04-10T17:48:38.172Z,1
2024-04-10T17:50:40.806Z,1
2024-04-10T17:52:37.583Z,1
2024-04-10T17:54:36.874Z,1
2024-04-10T17:56:36.899Z,1
2024-04-10T17:58:36.926Z,2
2024-04-10T18:00:36.917Z,1
2024-04-10T18:02:36.978Z,0
2024-04-10T18:04:37.272Z,1
2024-04-10T18:06:37.419Z,0
2024-04-10T18:08:37.226Z,0
2024-04-10T18:10:36.898Z,1
2024-04-10T18:12:37.137Z,0
2024-04-10T18:14:36.866Z,0
2024-04-10T18:16:36.833Z,0
2024-04-10T18:18:36.994Z,1
2024-04-10T18:20:36.963Z,1
2024-04-10T18:22:37.332Z,1
2024-04-10T18:24:37.017Z,1
2024-04-10T18:26:36.929Z,0
2024-04-10T18:28:37.951Z,1
2024-04-10T18:30:36.883Z,1
2024-04-10T18:32:37.064Z,0
2024-04-10T18:34:36.876Z,2
2024-04-10T18:36:36.832Z,1
2024-04-10T18:38:37.212Z,1
2024-04-10T18:40:36.882Z,1
2024-04-10T18:42:36.766Z,2
2024-04-10T18:44:36.941Z,0
2024-04-10T18:46:36.752Z,1
2024-04-10T18:48:37.869Z,0
2024-04-10T18:50:37.252Z,1
2024-04-10T18:52:36.776Z,1
2024-04-10T18:54:36.875Z,2
2024-04-10T18:56:36.922Z,2
2024-04-10T18:58:36.931Z,2
2024-04-10T19:00:37.165Z,1
2024-04-10T19:02:37.069Z,0
2024-04-10T19:04:37.150Z,1
2024-04-10T19:06:37.084Z,1
2024-04-10T19:08:36.813Z,1
2024-04-10T19:10:37.798Z,1
2024-04-10T19:12:37.035Z,1
2024-04-10T19:14:36.820Z,1
2024-04-10T19:16:37.131Z,1
2024-04-10T19:18:37.075Z,1
2024-04-10T19:20:36.862Z,2
2024-04-10T19:22:36.823Z,2
2024-04-10T19:24:36.798Z,0
2024-04-10T19:26:37.157Z,2
2024-04-10T19:28:36.905Z,2
2024-04-10T19:30:36.811Z,1
2024-04-10T19:32:36.934Z,1
2024-04-10T19:34:36.995Z,1
2024-04-10T19:36:36.842Z,1
2024-04-10T19:38:36.921Z,1
2024-04-10T19:40:36.885Z,2
2024-04-10T19:42:36.834Z,1
2024-04-10T19:44:36.876Z,2
2024-04-10T19:46:36.854Z,1
2024-04-10T19:48:37.306Z,2
2024-04-10T19:50:36.889Z,1
2024-04-10T19:52:36.839Z,1
2024-04-10T19:54:36.784Z,1
2024-04-10T19:56:36.959Z,2
2024-04-10T19:58:36.814Z,2
2024-04-10T20:00:36.847Z,2
2024-04-10T20:02:36.909Z,1
2024-04-10T20:04:36.799Z,1
2024-04-10T20:06:36.836Z,1
2024-04-10T20:08:37.180Z,1
2024-04-10T20:10:36.881Z,1
2024-04-10T20:12:36.895Z,1
2024-04-10T20:14:36.846Z,1
2024-04-10T20:16:36.812Z,0
2024-04-10T20:18:37.752Z,1
2024-04-10T20:20:37.084Z,1
2024-04-10T20:22:36.930Z,1
2024-04-10T20:24:36.815Z,1
2024-04-10T20:26:36.782Z,2
2024-04-10T20:28:36.729Z,1
2024-04-10T20:30:36.808Z,2
2024-04-10T20:32:36.929Z,2
2024-04-10T20:34:36.809Z,1
2024-04-10T20:36:37.045Z,1
2024-04-10T20:38:37.379Z,0
2024-04-10T20:40:37.046Z,1
2024-04-10T20:42:36.769Z,1
2024-04-10T20:44:36.905Z,1
2024-04-10T20:46:36.854Z,2
2024-04-10T20:48:37.120Z,1
2024-04-10T20:50:36.911Z,1
2024-04-10T20:52:39.633Z,1
2024-04-10T20:54:36.757Z,2
2024-04-10T20:56:37.086Z,2
2024-04-10T20:58:37.071Z,2
2024-04-10T21:00:36.784Z,1
2024-04-10T21:02:36.910Z,1
2024-04-10T21:04:36.895Z,2
2024-04-10T21:06:36.873Z,1
2024-04-10T21:08:36.839Z,2
2024-04-10T21:10:37.063Z,1
2024-04-10T21:12:36.861Z,1
2024-04-10T21:14:37.687Z,0
2024-04-10T21:16:36.905Z,1
2024-04-10T21:18:37.558Z,1
2024-04-10T21:20:37.490Z,1
2024-04-10T21:22:36.748Z,0
2024-04-10T21:24:36.824Z,1
2024-04-10T21:26:37.698Z,1
2024-04-10T21:28:37.030Z,1
2024-04-10T21:30:36.880Z,0
2024-04-10T21:32:37.083Z,0
2024-04-10T21:34:37.152Z,2
2024-04-10T21:36:36.688Z,2
2024-04-10T21:38:36.861Z,1
2024-04-10T21:40:37.507Z,1
2024-04-10T21:42:36.995Z,2
2024-04-10T21:44:37.025Z,1
2024-04-10T21:46:36.731Z,2
2024-04-10T21:48:36.908Z,1
2024-04-10T21:50:36.736Z,3
2024-04-10T21:52:36.833Z,3
2024-04-10T21:54:36.773Z,2
2024-04-10T21:56:36.670Z,2
2024-04-10T21:58:36.888Z,1
2024-04-10T22:00:46.759Z,2
2024-04-10T22:02:36.983Z,2
2024-04-10T22:04:36.960Z,2
2024-04-10T22:06:37.056Z,2
2024-04-10T22:08:37.056Z,2
2024-04-10T22:10:36.866Z,4
2024-04-10T22:12:36.941Z,2
2024-04-10T22:14:37.044Z,5
2024-04-10T22:16:36.771Z,8
2024-04-10T22:18:36.921Z,9
2024-04-10T22:20:37.094Z,7
2024-04-10T22:22:36.977Z,4
2024-04-10T22:24:36.640Z,4
2024-04-10T22:26:36.786Z,3
2024-04-10T22:28:36.720Z,4
2024-04-10T22:30:36.735Z,4
2024-04-10T22:32:36.548Z,4
2024-04-10T22:34:37.126Z,5
2024-04-10T22:36:36.942Z,6
2024-04-10T22:38:38.238Z,13
2024-04-10T22:40:37.009Z,21
2024-04-10T22:42:36.913Z,17
2024-04-10T22:44:36.815Z,23
2024-04-10T22:46:36.695Z,13
2024-04-10T22:48:36.912Z,13
2024-04-10T22:50:36.909Z,8
2024-04-10T22:52:36.825Z,8
2024-04-10T22:54:36.719Z,6
2024-04-10T22:56:37.302Z,8
2024-04-10T22:58:36.636Z,10
2024-04-10T23:00:36.713Z,7
2024-04-10T23:02:36.752Z,9
2024-04-10T23:04:37.330Z,8
2024-04-10T23:07:20.046Z,7
2024-04-10T23:08:36.946Z,5
2024-04-10T23:10:36.638Z,5
2024-04-10T23:12:36.728Z,5
2024-04-10T23:14:37.264Z,6
2024-04-10T23:16:36.700Z,5
2024-04-10T23:18:48.969Z,5
2024-04-10T23:20:36.790Z,7
2024-04-10T23:22:37.205Z,7
2024-04-10T23:24:36.702Z,10
2024-04-10T23:26:36.923Z,10
2024-04-10T23:28:36.952Z,6
2024-04-10T23:30:36.639Z,6
2024-04-10T23:32:37.104Z,6
2024-04-10T23:34:36.841Z,4
2024-04-10T23:36:36.700Z,3
2024-04-10T23:38:36.810Z,5
2024-04-10T23:40:36.689Z,3
2024-04-10T23:42:36.647Z,4
2024-04-10T23:44:36.671Z,3
2024-04-10T23:46:36.722Z,6
2024-04-10T23:48:36.810Z,5
2024-04-10T23:50:36.902Z,5
2024-04-10T23:52:37.334Z,3
2024-04-10T23:54:36.772Z,5
2024-04-10T23:56:36.888Z,3
2024-04-10T23:58:36.680Z,4
